Time;durP1;ratioP1;P1;durP2;ratioP2;P2;SDS_P1;SDS_P2;PMS_P1;PMS_P2;Temp;Humidity;BMP_temperature;BMP_pressure;BME280_temperature;BME280_humidity;BME280_pressure;Samples;Min_cycle;Max_cycle;Signal;HPM_P1;HPM_P2
2022/07/13 00:02:23;;;;;;;4.07;2.63;;;26.30;99.90;;;;;;5072550;28;20165;-70
2022/07/13 00:04:48;;;;;;;10.95;8.02;;;26.20;99.90;;;;;;5071761;28;20216;-70
2022/07/13 00:07:14;;;;;;;5.22;3.42;;;26.20;99.90;;;;;;5073008;28;20176;-70
2022/07/13 00:09:40;;;;;;;3.70;3.03;;;25.90;99.90;;;;;;5073196;28;20168;-70
2022/07/13 00:12:05;;;;;;;5.22;3.45;;;25.80;99.90;;;;;;5072439;28;20698;-70
2022/07/13 00:14:31;;;;;;;6.43;4.78;;;25.70;99.90;;;;;;5072779;28;20169;-70
2022/07/13 00:16:57;;;;;;;3.83;2.90;;;25.70;99.90;;;;;;5071321;28;20165;-70
2022/07/13 00:19:22;;;;;;;4.93;4.30;;;25.80;99.90;;;;;;5073033;28;20183;-70
2022/07/13 00:21:48;;;;;;;3.70;3.30;;;25.80;99.90;;;;;;5072474;28;20620;-70
2022/07/13 00:24:16;;;;;;;3.30;3.10;;;25.80;99.90;;;;;;5072452;28;20216;-70
2022/07/13 00:26:42;;;;;;;4.28;3.17;;;25.70;99.90;;;;;;5072541;28;20686;-69
2022/07/13 00:29:08;;;;;;;5.75;5.20;;;25.70;99.90;;;;;;5072597;28;20181;-69
2022/07/13 00:31:33;;;;;;;4.22;3.55;;;25.70;99.90;;;;;;5072458;28;20169;-69
2022/07/13 00:33:59;;;;;;;5.70;5.30;;;25.70;99.90;;;;;;5072778;28;20688;-69
2022/07/13 00:36:24;;;;;;;5.05;4.40;;;25.70;99.90;;;;;;5072631;28;20678;-69
2022/07/13 00:38:50;;;;;;;9.15;5.90;;;25.70;99.90;;;;;;5072661;28;20203;-69
2022/07/13 00:41:16;;;;;;;4.55;3.13;;;25.80;99.90;;;;;;5072727;28;20172;-68
2022/07/13 00:43:41;;;;;;;3.80;3.50;;;25.70;99.90;;;;;;5073275;28;20648;-69
2022/07/13 00:46:08;;;;;;;9.43;8.40;;;25.50;1.00;;;;;;5074716;28;20192;-69
2022/07/13 00:48:33;;;;;;;11.48;8.35;;;25.50;1.00;;;;;;5076341;28;20176;-69
2022/07/13 00:50:59;;;;;;;5.15;4.72;;;25.60;1.00;;;;;;5076217;28;20635;-70
2022/07/13 00:53:25;;;;;;;5.47;4.40;;;25.60;1.00;;;;;;5075020;28;20184;-70
2022/07/13 00:55:51;;;;;;;3.90;3.58;;;25.50;1.00;;;;;;5076300;28;20199;-70
2022/07/13 00:58:17;;;;;;;6.70;4.03;;;25.60;1.00;;;;;;5076435;28;20175;-70
2022/07/13 01:00:43;;;;;;;3.70;3.40;;;25.70;1.00;;;;;;5075723;28;20259;-70
2022/07/13 01:03:09;;;;;;;7.38;3.80;;;25.70;1.00;;;;;;5074730;28;20628;-70
2022/07/13 01:05:34;;;;;;;3.38;3.00;;;25.50;1.00;;;;;;5076210;28;20254;-70
2022/07/13 01:08:03;;;;;;;14.05;3.90;;;25.40;1.00;;;;;;5076032;28;20619;-70
2022/07/13 01:10:29;;;;;;;16.30;4.65;;;25.40;1.00;;;;;;5075777;28;20263;-71
2022/07/13 01:12:55;;;;;;;3.78;2.92;;;25.50;1.00;;;;;;5076036;28;20264;-70
2022/07/13 01:15:21;;;;;;;3.92;3.05;;;25.40;1.00;;;;;;5075725;28;20204;-70
2022/07/13 01:17:47;;;;;;;3.25;2.95;;;25.40;1.00;;;;;;5075727;28;20175;-69
2022/07/13 01:20:14;;;;;;;4.07;3.00;;;25.40;1.00;;;;;;5075652;28;20260;-71
2022/07/13 01:22:45;;;;;;;4.75;2.88;;;25.40;1.00;;;;;;5075761;28;20636;-69
2022/07/13 01:25:13;;;;;;;2.80;2.70;;;25.30;1.00;;;;;;5075552;28;20675;-69
2022/07/13 01:27:41;;;;;;;3.75;2.60;;;25.20;1.00;;;;;;5075555;28;20177;-68
2022/07/13 01:30:08;;;;;;;2.78;2.58;;;25.20;1.00;;;;;;5075223;28;20172;-69
2022/07/13 01:32:47;;;;;;;2.80;2.40;;;25.20;1.00;;;;;;5075384;28;20172;-69
2022/07/13 01:35:15;;;;;;;2.90;2.70;;;25.10;1.00;;;;;;5075569;28;20521;-70
2022/07/13 01:37:42;;;;;;;2.88;2.75;;;25.10;1.00;;;;;;5075321;28;20172;-70
2022/07/13 01:40:08;;;;;;;2.78;2.30;;;25.10;1.00;;;;;;5075708;28;20222;-69
2022/07/13 01:42:43;;;;;;;3.28;2.83;;;25.10;1.00;;;;;;5075276;28;20273;-69
2022/07/13 01:45:10;;;;;;;2.67;2.58;;;25.00;70.00;;;;;;5073459;28;20216;-69
2022/07/13 01:47:44;;;;;;;3.08;2.60;;;25.00;99.90;;;;;;5075397;28;20187;-69
2022/07/13 01:50:11;;;;;;;3.00;2.80;;;24.90;99.90;;;;;;5075063;28;20623;-69
2022/07/13 01:52:37;;;;;;;3.05;2.85;;;24.90;99.90;;;;;;5075213;28;20195;-69
2022/07/13 01:55:07;;;;;;;3.08;2.67;;;24.90;92.10;;;;;;5074216;28;20222;-69
2022/07/13 01:57:33;;;;;;;4.13;2.83;;;24.90;99.90;;;;;;5074713;28;20200;-69
2022/07/13 02:00:09;;;;;;;4.20;2.50;;;24.90;99.90;;;;;;5074844;28;20639;-69
2022/07/13 02:02:34;;;;;;;5.72;2.95;;;24.90;99.90;;;;;;5074934;28;20174;-69
2022/07/13 02:05:00;;;;;;;3.47;2.67;;;24.90;99.90;;;;;;5074716;28;20204;-69
2022/07/13 02:07:25;;;;;;;4.57;3.20;;;24.90;99.90;;;;;;5074800;28;20652;-69
2022/07/13 02:09:51;;;;;;;3.20;3.00;;;24.90;99.90;;;;;;5074876;28;20237;-69
2022/07/13 02:12:17;;;;;;;3.17;2.92;;;24.90;99.90;;;;;;5074134;28;20267;-69
2022/07/13 02:14:43;;;;;;;3.30;3.00;;;24.90;99.90;;;;;;5073316;28;20632;-69
2022/07/13 02:17:09;;;;;;;5.55;2.80;;;24.80;99.90;;;;;;5074683;28;20170;-69
2022/07/13 02:19:35;;;;;;;2.88;2.47;;;24.80;99.90;;;;;;5074733;28;20255;-69
2022/07/13 02:22:01;;;;;;;5.40;2.85;;;24.70;99.90;;;;;;5074526;28;20165;-69
2022/07/13 02:24:27;;;;;;;2.83;2.70;;;24.70;99.90;;;;;;5074394;28;20211;-69
2022/07/13 02:26:52;;;;;;;2.97;2.42;;;24.80;99.90;;;;;;5074051;28;20164;-69
2022/07/13 02:29:18;;;;;;;2.88;2.58;;;24.70;97.00;;;;;;5074572;28;20193;-69
2022/07/13 02:31:44;;;;;;;4.22;2.42;;;24.80;22.30;;;;;;5074426;28;20168;-68
2022/07/13 02:34:09;;;;;;;2.80;2.47;;;24.70;13.80;;;;;;5074322;28;20699;-69
2022/07/13 02:36:35;;;;;;;3.58;2.40;;;24.70;99.90;;;;;;5074038;28;20525;-68
2022/07/13 02:39:02;;;;;;;4.75;2.42;;;24.70;71.60;;;;;;5074098;28;20164;-68
2022/07/13 02:41:28;;;;;;;2.50;2.30;;;24.60;99.90;;;;;;5073901;28;20180;-69
2022/07/13 02:43:54;;;;;;;2.97;2.50;;;24.60;23.20;;;;;;5073825;28;20212;-68
2022/07/13 02:46:19;;;;;;;2.83;2.63;;;24.60;20.10;;;;;;5074141;28;20218;-68
2022/07/13 02:48:45;;;;;;;3.20;2.63;;;24.60;53.80;;;;;;5073845;28;20195;-69
2022/07/13 02:51:10;;;;;;;2.63;2.42;;;24.50;94.90;;;;;;5073844;28;20177;-69
2022/07/13 02:53:36;;;;;;;3.05;2.53;;;24.60;58.90;;;;;;5073839;28;20169;-69
2022/07/13 02:56:02;;;;;;;3.15;2.30;;;24.60;1.00;;;;;;5073399;28;20181;-69
2022/07/13 02:58:27;;;;;;;2.50;2.30;;;24.60;36.00;;;;;;5074009;28;20172;-69
2022/07/13 03:00:53;;;;;;;2.50;2.30;;;24.60;53.50;;;;;;5073712;28;20612;-69
2022/07/13 03:03:18;;;;;;;2.35;2.13;;;24.50;35.30;;;;;;5073478;28;20172;-69
2022/07/13 03:05:44;;;;;;;2.67;2.40;;;24.60;1.00;;;;;;5073606;28;20196;-69
2022/07/13 03:08:09;;;;;;;2.60;2.40;;;24.60;1.00;;;;;;5073367;28;20206;-69
2022/07/13 03:10:35;;;;;;;3.67;2.63;;;24.60;1.00;;;;;;5072875;28;20532;-69
2022/07/13 03:13:01;;;;;;;2.75;2.00;;;24.50;11.30;;;;;;5072247;28;20178;-69
2022/07/13 03:15:26;;;;;;;5.75;2.53;;;24.50;1.00;;;;;;5073444;28;20616;-69
2022/07/13 03:17:52;;;;;;;2.63;2.20;;;24.50;1.00;;;;;;5073537;28;20327;-69
2022/07/13 03:20:19;;;;;;;3.67;2.53;;;24.50;1.00;;;;;;5073483;28;20165;-70
2022/07/13 03:22:45;;;;;;;2.45;2.25;;;24.50;1.00;;;;;;5073453;28;20206;-69
2022/07/13 03:25:11;;;;;;;2.70;2.50;;;24.50;1.00;;;;;;5072785;28;20211;-70
2022/07/13 03:27:37;;;;;;;2.53;2.33;;;24.50;1.00;;;;;;5073546;28;20172;-69
2022/07/13 03:30:03;;;;;;;3.58;2.30;;;24.50;1.00;;;;;;5073199;28;20179;-69
2022/07/13 03:32:29;;;;;;;2.35;2.15;;;24.50;1.00;;;;;;5072878;28;20184;-68
2022/07/13 03:34:54;;;;;;;3.33;2.38;;;24.50;1.00;;;;;;5073304;28;20169;-68
2022/07/13 03:37:20;;;;;;;3.67;2.40;;;24.50;1.00;;;;;;5073536;28;20628;-68
2022/07/13 03:39:46;;;;;;;2.80;2.60;;;24.50;1.00;;;;;;5072732;28;20655;-68
2022/07/13 03:42:11;;;;;;;2.80;2.60;;;24.60;1.00;;;;;;5073117;28;20192;-69
2022/07/13 03:44:37;;;;;;;4.10;2.40;;;24.60;1.00;;;;;;5072714;28;20286;-69
2022/07/13 03:47:02;;;;;;;2.53;2.30;;;24.70;1.00;;;;;;5073356;28;20172;-69
2022/07/13 03:49:28;;;;;;;2.95;2.75;;;24.60;1.00;;;;;;5073117;28;20634;-68
2022/07/13 03:51:54;;;;;;;2.60;2.42;;;24.60;1.00;;;;;;5072869;28;20171;-69
2022/07/13 03:54:19;;;;;;;2.80;2.60;;;24.50;1.00;;;;;;5071394;28;20178;-69
2022/07/13 03:56:45;;;;;;;2.60;2.40;;;24.60;1.00;;;;;;5073225;28;20180;-69
2022/07/13 03:59:11;;;;;;;3.80;3.08;;;24.60;1.00;;;;;;5072733;28;20164;-68
2022/07/13 04:01:36;;;;;;;4.53;2.53;;;24.70;1.00;;;;;;5073049;28;20168;-68
2022/07/13 04:04:03;;;;;;;2.92;2.65;;;24.60;1.00;;;;;;5072271;28;20201;-69
2022/07/13 04:06:29;;;;;;;4.10;2.83;;;24.60;1.00;;;;;;5073030;28;20226;-69
2022/07/13 04:08:55;;;;;;;2.92;2.72;;;24.60;1.00;;;;;;5072375;28;20520;-69
2022/07/13 04:11:20;;;;;;;3.40;2.30;;;24.60;1.00;;;;;;5072280;28;20228;-69
2022/07/13 04:13:46;;;;;;;2.42;2.30;;;24.70;1.00;;;;;;5072719;28;20169;-68
2022/07/13 04:16:11;;;;;;;2.60;2.40;;;24.80;1.00;;;;;;5072963;28;20169;-69
2022/07/13 04:18:37;;;;;;;2.72;2.35;;;24.80;1.00;;;;;;5073346;28;20182;-69
2022/07/13 04:21:03;;;;;;;2.60;2.35;;;24.80;1.00;;;;;;5076750;28;20180;-69
2022/07/13 04:23:30;;;;;;;3.65;2.55;;;24.80;1.00;;;;;;5075929;28;20255;-69
2022/07/13 04:25:56;;;;;;;4.53;2.75;;;24.80;1.00;;;;;;5076720;28;20196;-69
2022/07/13 04:28:22;;;;;;;3.30;2.47;;;24.80;1.00;;;;;;5076765;28;20176;-69
2022/07/13 04:30:47;;;;;;;3.60;2.30;;;24.70;1.00;;;;;;5076790;28;20538;-69
2022/07/13 04:33:14;;;;;;;4.18;2.72;;;24.70;1.00;;;;;;5076236;28;20656;-69
2022/07/13 04:35:39;;;;;;;5.32;2.40;;;24.70;1.00;;;;;;5076442;28;20628;-69
2022/07/13 04:38:05;;;;;;;3.30;2.60;;;24.80;1.00;;;;;;5075470;28;20262;-69
2022/07/13 04:40:30;;;;;;;4.03;2.72;;;24.80;1.00;;;;;;5076246;28;20171;-69
2022/07/13 04:42:56;;;;;;;6.03;2.90;;;24.70;1.00;;;;;;5076113;28;20642;-69
2022/07/13 04:45:21;;;;;;;5.90;2.70;;;24.70;1.00;;;;;;5076091;28;20294;-70
2022/07/13 04:47:48;;;;;;;6.90;2.55;;;24.80;1.00;;;;;;5076230;28;20164;-70
2022/07/13 04:50:14;;;;;;;4.30;2.75;;;24.90;1.00;;;;;;5075613;28;20572;-70
2022/07/13 04:52:40;;;;;;;6.75;4.13;;;24.80;1.00;;;;;;5075333;28;20169;-70
2022/07/13 04:55:07;;;;;;;8.70;3.30;;;24.90;1.00;;;;;;5075837;28;20174;-70
2022/07/13 04:57:33;;;;;;;4.70;2.75;;;24.90;1.00;;;;;;5075998;28;20164;-70
2022/07/13 04:59:58;;;;;;;7.00;2.75;;;24.90;1.00;;;;;;5075953;28;20569;-69
2022/07/13 05:02:24;;;;;;;7.32;2.75;;;24.90;1.00;;;;;;5075994;28;20256;-69
2022/07/13 05:04:50;;;;;;;3.70;2.40;;;24.70;1.00;;;;;;5076027;28;20566;-69
2022/07/13 05:07:15;;;;;;;6.75;2.80;;;24.70;1.00;;;;;;5075404;28;20726;-69
2022/07/13 05:09:41;;;;;;;4.30;2.58;;;24.80;1.00;;;;;;5075272;28;20172;-69
2022/07/13 05:12:07;;;;;;;3.33;2.53;;;24.70;1.00;;;;;;5075015;28;20224;-69
2022/07/13 05:14:32;;;;;;;4.40;2.58;;;24.70;1.00;;;;;;5075504;28;20659;-69
2022/07/13 05:16:58;;;;;;;4.13;2.75;;;24.70;1.00;;;;;;5075231;28;20243;-69
2022/07/13 05:19:23;;;;;;;3.70;2.20;;;24.70;1.00;;;;;;5075399;28;20164;-69
2022/07/13 05:21:49;;;;;;;4.63;2.25;;;24.70;1.00;;;;;;5075114;28;20564;-69
2022/07/13 05:24:15;;;;;;;4.47;2.38;;;24.80;1.00;;;;;;5074939;28;20586;-69
2022/07/13 05:26:40;;;;;;;3.20;2.50;;;24.80;1.00;;;;;;5075532;28;20171;-69
2022/07/13 05:29:06;;;;;;;4.88;2.92;;;24.80;1.00;;;;;;5075423;28;20518;-69
2022/07/13 05:31:32;;;;;;;5.18;2.75;;;24.80;1.00;;;;;;5075063;28;20276;-69
2022/07/13 05:33:58;;;;;;;6.32;2.67;;;24.80;1.00;;;;;;5075063;28;20695;-69
2022/07/13 05:36:23;;;;;;;9.02;2.97;;;24.80;1.00;;;;;;5074668;28;20248;-69
2022/07/13 05:38:49;;;;;;;3.67;2.60;;;24.80;1.00;;;;;;5074760;28;20165;-69
2022/07/13 05:41:15;;;;;;;2.35;2.15;;;24.80;1.00;;;;;;5074888;28;20181;-69
2022/07/13 05:43:41;;;;;;;3.33;2.20;;;25.00;1.00;;;;;;5074868;28;20208;-69
2022/07/13 05:46:09;;;;;;;7.68;2.75;;;25.10;1.00;;;;;;5074495;28;20243;-70
2022/07/13 05:48:35;;;;;;;7.82;2.70;;;24.90;1.00;;;;;;5074945;28;20169;-69
2022/07/13 05:51:01;;;;;;;4.05;2.50;;;25.10;1.00;;;;;;5074322;28;20616;-69
2022/07/13 05:53:27;;;;;;;4.28;2.40;;;25.10;1.00;;;;;;5074490;28;20177;-69
2022/07/13 05:55:52;;;;;;;4.20;2.47;;;25.10;1.00;;;;;;5073644;28;20213;-70
2022/07/13 05:58:18;;;;;;;5.63;2.60;;;25.30;1.00;;;;;;5074261;28;20677;-70
2022/07/13 06:00:44;;;;;;;4.65;2.63;;;25.30;1.00;;;;;;5074042;28;20180;-70
2022/07/13 06:03:09;;;;;;;6.57;2.42;;;25.20;1.00;;;;;;5074502;28;20195;-70
2022/07/13 06:05:35;;;;;;;8.02;2.88;;;25.40;1.00;;;;;;5072640;28;20353;-69
2022/07/13 06:08:00;;;;;;;5.53;2.67;;;25.70;1.00;;;;;;5074285;28;20169;-70
2022/07/13 06:10:26;;;;;;;6.13;2.90;;;25.90;1.00;;;;;;5074478;28;20585;-70
2022/07/13 06:12:52;;;;;;;8.13;3.70;;;25.90;1.00;;;;;;5074039;28;20224;-70
2022/07/13 06:15:18;;;;;;;6.47;2.85;;;25.80;1.00;;;;;;5074006;28;20171;-70
2022/07/13 06:17:43;;;;;;;13.25;3.85;;;25.90;1.00;;;;;;5074320;28;20179;-71
2022/07/13 06:20:09;;;;;;;5.63;2.67;;;26.00;1.00;;;;;;5073188;28;20632;-69
2022/07/13 06:22:35;;;;;;;3.65;2.78;;;25.90;1.00;;;;;;5073907;28;20191;-72
2022/07/13 06:25:03;;;;;;;6.05;2.53;;;26.10;1.00;;;;;;5071958;28;20303;-69
2022/07/13 06:27:29;;;;;;;2.55;2.28;;;26.30;1.00;;;;;;5074339;28;20222;-69
2022/07/13 06:29:54;;;;;;;7.47;3.00;;;26.70;99.90;;;;;;5073225;28;20180;-70
2022/07/13 06:32:20;;;;;;;4.68;2.55;;;26.80;99.90;;;;;;5073733;28;20169;-69
2022/07/13 06:34:46;;;;;;;4.18;3.05;;;26.80;99.90;;;;;;5073578;28;20715;-70
2022/07/13 06:37:11;;;;;;;7.63;2.97;;;26.60;99.90;;;;;;5073732;28;20211;-70
2022/07/13 06:39:37;;;;;;;2.70;2.50;;;26.50;1.00;;;;;;5072883;28;20248;-70
2022/07/13 06:42:03;;;;;;;9.40;2.60;;;26.50;1.00;;;;;;5073368;28;20179;-69
2022/07/13 06:44:28;;;;;;;8.32;2.78;;;26.20;1.00;;;;;;5073433;28;20223;-70
2022/07/13 06:46:54;;;;;;;6.55;2.70;;;26.20;1.00;;;;;;5072992;28;20161;-70
2022/07/13 06:49:19;;;;;;;3.95;2.50;;;26.00;1.00;;;;;;5072897;28;20290;-69
2022/07/13 06:51:45;;;;;;;5.82;2.65;;;26.00;1.00;;;;;;5073533;28;20172;-68
2022/07/13 06:54:11;;;;;;;8.38;2.63;;;26.10;1.00;;;;;;5072799;28;20176;-69
2022/07/13 06:56:36;;;;;;;4.93;2.78;;;26.30;1.00;;;;;;5073485;28;20183;-69
2022/07/13 06:59:03;;;;;;;6.32;2.70;;;26.50;99.90;;;;;;5073038;28;20165;-69
2022/07/13 07:01:28;;;;;;;7.20;2.85;;;26.80;99.90;;;;;;5073051;28;20276;-69
2022/07/13 07:03:54;;;;;;;6.93;2.80;;;26.90;99.90;;;;;;5072361;28;20200;-70
2022/07/13 07:06:20;;;;;;;3.25;2.65;;;26.90;99.90;;;;;;5073567;28;20234;-69
2022/07/13 07:08:45;;;;;;;5.30;2.90;;;27.10;99.90;;;;;;5073010;28;20171;-69
2022/07/13 07:11:11;;;;;;;4.63;2.85;;;27.30;99.90;;;;;;5072852;28;20252;-70
2022/07/13 07:13:37;;;;;;;11.10;3.15;;;27.30;99.90;;;;;;5072336;28;20255;-70
2022/07/13 07:16:03;;;;;;;5.57;2.80;;;27.50;99.90;;;;;;5072456;28;20226;-69
2022/07/13 07:18:28;;;;;;;6.72;2.88;;;27.50;99.90;;;;;;5071530;28;20651;-70
2022/07/13 07:20:54;;;;;;;6.63;2.97;;;27.40;99.90;;;;;;5072643;28;20188;-70
2022/07/13 07:23:19;;;;;;;7.03;3.17;;;27.30;99.90;;;;;;5072052;28;20200;-69
2022/07/13 07:25:45;;;;;;;4.60;2.78;;;27.40;99.90;;;;;;5072331;28;20204;-69
2022/07/13 07:28:11;;;;;;;6.43;2.72;;;27.20;99.90;;;;;;5072755;28;20624;-70
2022/07/13 07:30:37;;;;;;;6.10;2.75;;;27.20;99.90;;;;;;5072579;28;20179;-69
2022/07/13 07:33:03;;;;;;;5.55;2.78;;;27.50;99.90;;;;;;5070793;28;20168;-69
2022/07/13 07:35:29;;;;;;;8.95;3.00;;;27.60;99.90;;;;;;5071911;28;20311;-69
2022/07/13 07:37:54;;;;;;;4.47;2.72;;;27.90;99.90;;;;;;5072144;28;20588;-69
2022/07/13 07:40:20;;;;;;;7.05;2.65;;;28.40;99.90;;;;;;5072280;28;20183;-69
2022/07/13 07:42:46;;;;;;;3.60;2.63;;;28.80;99.90;;;;;;5071474;28;20172;-69
2022/07/13 07:45:11;;;;;;;4.75;3.03;;;29.10;99.90;;;;;;5085470;28;20242;-69
2022/07/13 07:47:38;;;;;;;5.43;2.83;;;28.80;99.90;;;;;;5106615;28;20275;-69
2022/07/13 07:50:05;;;;;;;6.18;3.10;;;28.90;99.90;;;;;;5091937;28;20183;-69
2022/07/13 07:52:31;;;;;;;6.53;3.40;;;28.70;99.90;;;;;;5099542;28;20210;-69
2022/07/13 07:54:56;;;;;;;4.82;3.05;;;28.70;99.90;;;;;;5104791;28;20206;-69
2022/07/13 07:57:22;;;;;;;9.57;3.70;;;28.50;99.90;;;;;;5094941;28;20646;-69
2022/07/13 07:59:47;;;;;;;7.28;3.17;;;28.50;99.90;;;;;;5105989;28;20626;-70
2022/07/13 08:02:14;;;;;;;7.95;3.30;;;28.80;99.90;;;;;;5098283;28;20177;-70
2022/07/13 08:04:39;;;;;;;5.22;3.22;;;28.30;99.90;;;;;;5098480;28;20223;-70
2022/07/13 08:07:07;;;;;;;6.00;3.33;;;28.20;99.90;;;;;;5107305;28;20163;-70
2022/07/13 08:09:33;;;;;;;7.45;2.88;;;28.10;99.90;;;;;;5094849;28;20190;-69
2022/07/13 08:12:00;;;;;;;4.95;3.40;;;28.60;99.90;;;;;;5064313;28;1107340;-69
2022/07/13 08:14:26;;;;;;;8.25;3.40;;;28.70;99.90;;;;;;5102684;28;20680;-69
2022/07/13 08:16:52;;;;;;;6.53;3.50;;;28.80;99.90;;;;;;5097419;28;20215;-70
2022/07/13 08:19:17;;;;;;;7.90;3.28;;;28.60;99.90;;;;;;5108919;28;20537;-70
2022/07/13 08:21:43;;;;;;;8.63;3.20;;;28.80;99.90;;;;;;5097168;28;20176;-71
2022/07/13 08:24:09;;;;;;;5.80;3.08;;;29.50;99.90;;;;;;5108045;28;20736;-71
2022/07/13 08:26:35;;;;;;;4.35;3.17;;;30.00;99.90;;;;;;5105450;28;20182;-70
2022/07/13 08:29:00;;;;;;;7.60;3.60;;;30.00;99.90;;;;;;5096212;28;20536;-70
2022/07/13 08:31:26;;;;;;;4.93;3.20;;;30.20;99.90;;;;;;5108557;28;20187;-71
2022/07/13 08:39:23;;;;;;;4.22;3.22;;;30.80;99.90;;;;;;5108111;28;20187;-70
2022/07/13 08:41:49;;;;;;;7.80;3.85;;;31.00;99.90;;;;;;5097524;28;20175;-70
2022/07/13 08:44:15;;;;;;;9.30;3.40;;;31.20;99.90;;;;;;5102941;28;20248;-71
2022/07/13 08:46:41;;;;;;;5.15;3.42;;;30.80;99.90;;;;;;5104871;28;20248;-70
2022/07/13 08:49:07;;;;;;;6.75;3.40;;;29.80;99.90;;;;;;5095339;28;20164;-70
2022/07/13 08:51:33;;;;;;;8.45;3.47;;;29.60;99.90;;;;;;5108606;28;20542;-69
2022/07/13 08:54:00;;;;;;;6.35;2.92;;;30.00;99.90;;;;;;5098874;28;20262;-69
2022/07/13 08:56:26;;;;;;;4.60;3.40;;;30.70;99.90;;;;;;5101266;28;20176;-70
2022/07/13 08:58:52;;;;;;;5.40;2.92;;;31.10;99.90;;;;;;5105999;28;20584;-70
2022/07/13 09:01:19;;;;;;;6.85;3.08;;;31.00;99.90;;;;;;5095148;28;20195;-70
2022/07/13 09:03:45;;;;;;;7.25;3.28;;;31.60;99.90;;;;;;5106648;28;20255;-70
2022/07/13 09:06:39;;;;;;;7.07;3.40;;;31.80;99.90;;;;;;5103570;28;20269;-70
2022/07/13 09:09:06;;;;;;;5.60;3.05;;;31.60;99.90;;;;;;5098692;28;20176;-70
2022/07/13 09:11:32;;;;;;;6.30;2.72;;;31.80;99.90;;;;;;5111684;28;20683;-69
2022/07/13 09:13:57;;;;;;;8.63;3.13;;;31.90;99.90;;;;;;5101924;28;20175;-71
2022/07/13 09:16:24;;;;;;;8.13;3.40;;;31.70;99.90;;;;;;5105039;28;20168;-69
2022/07/13 09:18:59;;;;;;;5.85;3.47;;;31.90;99.90;;;;;;5109432;28;20196;-70
2022/07/13 09:21:25;;;;;;;3.08;2.88;;;31.80;99.90;;;;;;5098569;28;20664;-71
2022/07/13 09:23:56;;;;;;;2.97;2.67;;;32.10;99.90;;;;;;5100317;28;20187;-70
2022/07/13 09:26:22;;;;;;;4.22;2.95;;;32.70;99.90;;;;;;5099553;28;20179;-71
2022/07/13 09:28:50;;;;;;;7.55;2.85;;;32.90;99.90;;;;;;5100932;28;20635;-71
2022/07/13 09:31:16;;;;;;;4.60;2.88;;;34.00;99.90;;;;;;5112055;28;20232;-72
2022/07/13 09:33:45;;;;;;;15.55;3.15;;;35.30;93.80;;;;;;5099181;28;20253;-72
2022/07/13 09:36:14;;;;;;;7.43;3.08;;;35.80;76.60;;;;;;5106771;27;20540;-73
2022/07/13 09:38:45;;;;;;;7.00;2.70;;;36.20;61.70;;;;;;5106267;28;20167;-72
2022/07/13 09:41:14;;;;;;;3.75;2.70;;;36.80;44.90;;;;;;5098274;28;20262;-73
2022/07/13 09:47:01;;;;;;;3.13;2.63;;;36.30;29.20;;;;;;5108195;28;20208;-72
2022/07/13 09:49:43;;;;;;;4.30;2.70;;;35.50;28.80;;;;;;5097767;28;20638;-73
2022/07/13 09:52:09;;;;;;;3.90;2.15;;;35.60;26.80;;;;;;5106409;28;20229;-74
2022/07/13 09:54:39;;;;;;;2.50;1.90;;;36.40;21.00;;;;;;5106079;28;20272;-75
2022/07/13 09:57:08;;;;;;;8.65;2.88;;;37.40;14.60;;;;;;5114122;28;20175;-74
2022/07/13 09:59:36;;;;;;;7.88;1.98;;;38.00;8.50;;;;;;5115083;28;20245;-74
2022/07/13 10:02:03;;;;;;;4.05;2.17;;;38.10;2.10;;;;;;5115372;28;20185;-77
2022/07/13 10:04:30;;;;;;;3.88;2.40;;;39.00;1.00;;;;;;5110508;28;20701;-75
2022/07/13 10:06:56;;;;;;;5.60;2.65;;;40.20;1.00;;;;;;5089640;28;20232;-75
2022/07/13 10:09:32;;;;;;;2.33;2.22;;;39.90;1.00;;;;;;5088579;28;20218;-75
2022/07/13 10:11:58;;;;;;;3.00;2.30;;;38.40;1.00;;;;;;5088980;28;20225;-74
2022/07/13 10:14:26;;;;;;;2.75;2.10;;;37.50;1.00;;;;;;5105495;28;20164;-73
2022/07/13 10:17:01;;;;;;;5.82;2.20;;;37.60;1.00;;;;;;5104160;28;20170;-73
2022/07/13 10:19:29;;;;;;;2.65;2.10;;;36.60;1.00;;;;;;5097477;27;20251;-73
2022/07/13 10:22:11;;;;;;;4.95;2.13;;;36.20;1.00;;;;;;5109799;28;20167;-73
2022/07/13 10:24:37;;;;;;;2.40;2.20;;;36.60;1.00;;;;;;5104000;28;20722;-73
2022/07/13 10:27:45;;;;;;;4.85;2.20;;;37.20;6.50;;;;;;5100563;28;20175;-72
2022/07/13 10:30:23;;;;;;;4.55;2.20;;;38.20;1.00;;;;;;5084312;28;20182;-73
2022/07/13 10:32:48;;;;;;;4.47;1.80;;;39.10;1.00;;;;;;5102238;28;20171;-73
2022/07/13 10:35:20;;;;;;;3.20;1.92;;;39.10;1.00;;;;;;5107093;28;20212;-73
2022/07/13 10:37:58;;;;;;;5.30;2.30;;;39.10;1.00;;;;;;5095989;28;20172;-74
2022/07/13 10:40:24;;;;;;;5.63;3.50;;;39.50;1.00;;;;;;5113678;28;20668;-72
2022/07/13 10:42:57;;;;;;;5.45;3.45;;;40.00;1.00;;;;;;5101917;28;20229;-73
2022/07/13 10:45:38;;;;;;;3.50;3.08;;;40.10;1.00;;;;;;5109858;28;20210;-74
2022/07/13 10:48:21;;;;;;;1.80;1.70;;;40.30;1.00;;;;;;5084433;28;20211;-75
2022/07/13 10:50:51;;;;;;;2.63;2.42;;;38.70;1.00;;;;;;5101828;28;20224;-74
2022/07/13 10:53:17;;;;;;;2.65;2.03;;;38.20;1.00;;;;;;5109324;28;20181;-74
2022/07/13 10:55:49;;;;;;;2.13;1.90;;;37.50;1.00;;;;;;5096207;28;20171;-73
2022/07/13 10:58:39;;;;;;;3.05;1.90;;;37.50;1.00;;;;;;5106311;28;20160;-73
2022/07/13 11:01:30;;;;;;;7.63;3.47;;;38.50;1.00;;;;;;5106103;28;20166;-75
2022/07/13 11:03:56;;;;;;;4.88;2.67;;;38.20;1.00;;;;;;5108981;28;20726;-75
2022/07/13 11:06:26;;;;;;;4.65;2.67;;;38.00;1.00;;;;;;5099052;28;20585;-75
2022/07/13 11:09:07;;;;;;;3.00;2.70;;;37.90;1.00;;;;;;5101066;28;20699;-75
2022/07/13 11:11:33;;;;;;;6.50;2.50;;;38.30;1.00;;;;;;5091849;28;20718;-76
2022/07/13 11:13:58;;;;;;;2.00;1.90;;;38.20;1.00;;;;;;5091235;28;20584;-74
2022/07/13 11:16:48;;;;;;;2.80;2.00;;;37.90;1.00;;;;;;5093202;28;20167;-74
2022/07/13 11:19:15;;;;;;;4.65;2.50;;;37.40;1.00;;;;;;5092520;28;20698;-75
2022/07/13 11:22:03;;;;;;;3.05;2.20;;;37.80;1.00;;;;;;5092673;28;20186;-74
2022/07/13 11:27:26;;;;;;;12.25;2.53;;;37.40;1.00;;;;;;5093549;28;20213;-73
2022/07/13 11:29:59;;;;;;;4.38;2.30;;;36.70;1.00;;;;;;5093072;28;20160;-73
2022/07/13 11:32:25;;;;;;;5.30;2.67;;;36.70;1.00;;;;;;5092837;28;20175;-74
2022/07/13 11:34:52;;;;;;;2.88;2.35;;;36.10;1.00;;;;;;5093132;28;20646;-73
2022/07/13 11:37:25;;;;;;;5.63;2.33;;;35.90;1.00;;;;;;5089686;28;20198;-73
2022/07/13 11:39:51;;;;;;;9.50;2.50;;;35.90;1.00;;;;;;5092857;28;20237;-74
2022/07/13 11:42:21;;;;;;;3.83;2.40;;;35.90;1.00;;;;;;5093058;28;20636;-74
2022/07/13 11:44:49;;;;;;;5.55;2.15;;;36.00;1.00;;;;;;5093131;28;20292;-74
2022/07/13 11:47:15;;;;;;;6.10;2.45;;;36.20;1.00;;;;;;5092742;28;20168;-74
2022/07/13 11:49:47;;;;;;;4.68;2.22;;;36.20;1.00;;;;;;5092371;28;20681;-75
2022/07/13 11:52:24;;;;;;;3.17;2.22;;;36.60;1.00;;;;;;5092808;28;20172;-73
2022/07/13 11:55:04;;;;;;;12.05;3.15;;;36.40;1.00;;;;;;5091014;28;20243;-74
2022/07/13 11:57:31;;;;;;;6.80;2.60;;;36.60;1.00;;;;;;5086150;28;20160;-75
2022/07/13 12:00:04;;;;;;;5.15;2.55;;;36.80;1.00;;;;;;5081107;28;20191;-75
2022/07/13 12:02:30;;;;;;;18.27;3.15;;;36.80;1.00;;;;;;5085448;28;20263;-73
2022/07/13 12:04:56;;;;;;;2.17;1.98;;;35.80;1.00;;;;;;5075470;28;20291;-72
2022/07/13 12:07:23;;;;;;;3.90;1.83;;;35.50;1.00;;;;;;5092397;28;20256;-73
2022/07/13 12:09:54;;;;;;;6.00;2.10;;;35.30;1.00;;;;;;5078099;28;20187;-73
2022/07/13 12:12:31;;;;;;;2.97;2.00;;;35.30;1.00;;;;;;5071998;28;20274;-72
2022/07/13 12:14:58;;;;;;;8.50;2.22;;;35.30;1.00;;;;;;5071221;28;20234;-72
2022/07/13 12:17:25;;;;;;;4.65;1.98;;;35.20;1.00;;;;;;5072479;28;20196;-72
2022/07/13 12:19:51;;;;;;;4.97;2.33;;;34.80;1.00;;;;;;5072641;28;20180;-72
2022/07/13 12:22:22;;;;;;;3.33;1.90;;;34.70;1.00;;;;;;5072420;28;20584;-72
2022/07/13 12:24:47;;;;;;;5.57;2.40;;;34.50;1.00;;;;;;5071933;28;20212;-72
2022/07/13 12:27:26;;;;;;;5.00;2.33;;;34.40;1.00;;;;;;5072249;28;20179;-73
2022/07/13 12:30:09;;;;;;;9.60;2.72;;;34.60;1.50;;;;;;5071981;28;20279;-72
2022/07/13 12:33:14;;;;;;;6.63;2.22;;;34.70;1.60;;;;;;5074896;28;20168;-72
2022/07/13 12:35:41;;;;;;;7.50;2.60;;;34.50;1.60;;;;;;5071376;28;20172;-75
2022/07/13 12:38:09;;;;;;;4.28;2.00;;;34.50;1.00;;;;;;5072255;28;20177;-74
2022/07/13 12:40:55;;;;;;;6.97;2.00;;;34.00;3.70;;;;;;5074248;28;20172;-72
2022/07/13 12:43:26;;;;;;;5.72;2.15;;;33.80;5.20;;;;;;5075704;28;20247;-72
2022/07/13 12:45:57;;;;;;;5.55;2.40;;;33.90;4.80;;;;;;5076087;28;20290;-71
2022/07/13 12:48:25;;;;;;;4.18;2.30;;;34.10;7.50;;;;;;5076078;28;20663;-72
2022/07/13 12:51:04;;;;;;;12.65;3.17;;;34.00;6.90;;;;;;5075558;28;20179;-72
2022/07/13 12:53:49;;;;;;;8.43;2.20;;;33.70;9.40;;;;;;5074248;28;20172;-72
2022/07/13 12:56:17;;;;;;;3.28;1.90;;;33.60;8.90;;;;;;5076003;28;20161;-73
2022/07/13 12:58:45;;;;;;;8.82;2.00;;;33.80;11.50;;;;;;5074466;28;20173;-72
2022/07/13 13:01:28;;;;;;;3.42;1.90;;;33.90;11.70;;;;;;5075667;28;20172;-72
2022/07/13 13:03:54;;;;;;;2.13;1.92;;;34.20;11.00;;;;;;5075551;28;20236;-71
2022/07/13 13:06:19;;;;;;;2.80;2.03;;;34.00;7.90;;;;;;5074526;28;20184;-74
2022/07/13 13:08:45;;;;;;;5.10;2.13;;;33.60;7.00;;;;;;5074358;28;20175;-71